Flight Track Log - Related Links

Times and Time Zones

All times are in EDT time to prevent confusion due to time zone crossing. See the SKW5631 flight status page for this flight to view local times or setup timezone preferences in your user account.

Time Position Orientation Groundspeed Altitude Reporting Facility
EDT Latitude Longitude Course Direction KTS MPH feet Rate Location/Type
Fri 03:46:15 PM 30.1064 -97.7506 291° West 239 275 5,000  Level Houston Center
Fri 03:47:00 PM 30.4505 -97.7637 293° West  Level FlightAware Approximate
Fri 03:47:17 PM 30.1758 -97.8233 318° Northwest 283 326 8,400  Level Houston Center
Fri 03:48:00 PM 30.4953 -97.8872 293° West  Level FlightAware Approximate
Fri 03:48:19 PM 30.2336 -97.8883 316° Northwest 284 327 10,700  Level Houston Center
Fri 03:49:00 PM 30.5374 -98.0119 291° West  Level FlightAware Approximate
Fri 03:49:21 PM 30.2858 -97.9694 307° West 290 334 12,800  Level Houston Center
Fri 03:50:00 PM 30.5791 -98.1370 291° West  Level FlightAware Approximate
Fri 03:50:24 PM 30.3336 -98.0456 306° West 306 352 14,600  Level Houston Center
Fri 03:51:00 PM 30.6207 -98.2621 291° West  Level FlightAware Approximate
Fri 03:51:26 PM 30.3886 -98.1314 307° West 323 372 16,800  Level Houston Center
Fri 03:52:28 PM 30.4417 -98.2142 307° West 319 367 19,000 1,920 Climbing Houston Center
Fri 03:53:31 PM 30.4939 -98.2981 306° West 317 365 20,800 1,839 Climbing Houston Center
Fri 03:54:32 PM 30.5481 -98.3833 306° West 323 372 22,800 1,902 Climbing Houston Center
Fri 03:55:34 PM 30.6092 -98.4842 305° West 324 373 24,700 1,403 Climbing Houston Center
Fri 03:56:36 PM 30.6661 -98.5753 306° West 340 391 25,700 1,210 Climbing Houston Center
Fri 03:57:38 PM 30.7242 -98.6681 306° West 347 399 27,200 1,344 Climbing Houston Center
Fri 03:58:41 PM 30.7817 -98.7622 305° West 353 406 28,500 1,200 Climbing Houston Center
Fri 03:59:43 PM 30.8675 -98.8314 325° Northwest 376 433 29,700 1,016 Climbing Houston Center
Fri 04:00:45 PM 30.9625 -98.8919 331° Northwest 383 441 30,600 677 Climbing Houston Center
Fri 04:01:47 PM 31.0633 -98.9511 333° Northwest 398 458 31,100 629 Climbing Houston Center
Fri 04:02:49 PM 31.1956 -99.0047 341° North 421 484 31,900 968 Climbing Houston Center
Fri 04:03:51 PM 31.3092 -99.0508 341° North 426 490 33,100 1,065 Climbing Houston Center
Fri 04:04:53 PM 31.4094 -99.1189 330° Northwest 411 473 34,100 871 Climbing Houston Center
Fri 04:05:55 PM 31.5036 -99.1797 331° Northwest 407 468 34,900 639 Climbing Fort Worth Center
Fri 04:06:55 PM 31.5986 -99.2525 327° Northwest 402 463 35,400 500 Climbing Fort Worth Center
Fri 04:07:55 PM 31.6997 -99.3203 330° Northwest 402 463 35,900 500 Climbing Fort Worth Center
Fri 04:08:55 PM 31.8011 -99.3883 330° Northwest 412 474 36,400 650 Climbing Fort Worth Center
Fri 04:09:55 PM 31.9022 -99.4592 329° Northwest 417 480 37,200 800 Climbing Fort Worth Center
Fri 04:10:55 PM 31.9992 -99.5250 330° Northwest 417 480 38,000 400 Climbing Fort Worth Center
Fri 04:11:55 PM 32.0983 -99.5936 330° Northwest 417 480 38,000  Level Fort Worth Center
Fri 04:12:55 PM 32.1953 -99.6622 329° Northwest 412 474 38,000  Level Fort Worth Center
Fri 04:13:55 PM 32.2942 -99.7308 330° Northwest 412 474 38,000  Level Fort Worth Center
Fri 04:14:55 PM 32.3931 -99.8022 329° Northwest 412 474 38,000  Level Fort Worth Center
Fri 04:15:55 PM 32.4856 -99.8786 325° Northwest 412 474 38,000  Level Fort Worth Center
Fri 04:16:55 PM 32.5544 -99.9792 309° West 398 458 38,000  Level Fort Worth Center
Fri 04:17:55 PM 32.6358 -100.0875 312° West 398 458 38,000  Level Fort Worth Center
Fri 04:18:55 PM 32.7044 -100.1883 309° West 398 458 38,000  Level Fort Worth Center
Fri 04:19:55 PM 32.7753 -100.2869 311° West 393 452 38,000  Level Fort Worth Center
Fri 04:20:55 PM 32.8419 -100.3806 310° West 383 441 38,000  Level Fort Worth Center
Fri 04:21:55 PM 32.9106 -100.4792 310° West 383 441 38,000  Level Fort Worth Center
Fri 04:22:55 PM 32.9792 -100.5758 310° West 383 441 38,000  Level Fort Worth Center
Fri 04:23:55 PM 33.0475 -100.6772 309° West 383 441 38,000  Level Fort Worth Center
Fri 04:24:55 PM 33.1139 -100.7739 309° West 383 441 38,000  Level Fort Worth Center
Fri 04:25:55 PM 33.1822 -100.8708 310° West 383 441 38,000  Level Fort Worth Center
Fri 04:26:55 PM 33.2525 -100.9706 310° West 383 441 38,000  Level Fort Worth Center
Fri 04:27:55 PM 33.3206 -101.0678 310° West 383 441 38,000  Level Fort Worth Center
Fri 04:28:55 PM 33.3867 -101.1675 308° West 388 447 38,000  Level Fort Worth Center
Fri 04:29:55 PM 33.4544 -101.2675 309° West 388 447 38,000  Level Fort Worth Center
Fri 04:30:55 PM 33.5203 -101.3650 309° West 388 447 38,000  Level Fort Worth Center
Fri 04:31:55 PM 33.5881 -101.4678 308° West 388 447 38,000  Level Fort Worth Center
Fri 04:32:55 PM 33.6558 -101.5658 310° West 388 447 38,000  Level Fort Worth Center
Fri 04:33:55 PM 33.7214 -101.6636 309° West 383 441 38,000  Level Fort Worth Center
Fri 04:34:55 PM 33.7908 -101.7619 310° West 389 448 38,000  Level Fort Worth Center
Fri 04:35:55 PM 33.8503 -101.8550 308° West 382 440 38,000  Level Fort Worth Center
Fri 04:37:42 PM 33.9608 -102.0247 308° West 377 434 38,000  Level Albuquerque Center
Fri 04:38:44 PM 34.0322 -102.1306 309° West 379 436 38,000  Level Albuquerque Center
Fri 04:39:46 PM 34.0978 -102.2292 309° West 378 435 38,000  Level Albuquerque Center
Fri 04:40:48 PM 34.1633 -102.3311 308° West 383 441 38,000  Level Albuquerque Center
Fri 04:41:51 PM 34.2392 -102.4467 308° West 383 441 38,000  Level Albuquerque Center
Fri 04:42:53 PM 34.3047 -102.5464 309° West 381 438 38,000  Level Albuquerque Center
Fri 04:43:55 PM 34.3697 -102.6467 308° West 379 436 38,000  Level Albuquerque Center
Fri 04:44:57 PM 34.4361 -102.7486 308° West 381 438 38,000  Level Albuquerque Center
Fri 04:45:59 PM 34.5136 -102.8664 309° West 380 437 38,000  Level Albuquerque Center
Fri 04:47:01 PM 34.5664 -102.9786 300° West 378 435 38,000  Level Albuquerque Center
Fri 04:48:03 PM 34.6247 -103.0864 303° West 379 436 38,000  Level Albuquerque Center
Fri 04:49:05 PM 34.6811 -103.1978 302° West 383 441 38,000  Level Albuquerque Center
Fri 04:50:07 PM 34.7397 -103.3069 303° West 382 440 38,000  Level Albuquerque Center
Fri 04:51:09 PM 34.7961 -103.4178 302° West 382 440 38,000  Level Albuquerque Center
Fri 04:52:11 PM 34.8528 -103.5281 302° West 381 438 38,000  Level Albuquerque Center
Fri 04:53:13 PM 34.9183 -103.6569 302° West 380 437 38,000  Level Albuquerque Center
Fri 04:54:15 PM 34.9744 -103.7681 302° West 382 440 38,000  Level Albuquerque Center
Fri 04:55:17 PM 35.0311 -103.8789 302° West 382 440 38,000  Level Albuquerque Center
Fri 04:56:19 PM 35.0875 -103.9881 302° West 386 444 38,000  Level Albuquerque Center
Fri 04:57:21 PM 35.1439 -104.0983 302° West 384 442 38,000  Level Albuquerque Center
Fri 04:58:23 PM 35.2003 -104.2103 302° West 385 443 38,000  Level Albuquerque Center
Fri 04:59:25 PM 35.2681 -104.3467 301° West 390 449 38,000  Level Albuquerque Center
Fri 05:00:27 PM 35.3253 -104.4611 302° West 394 453 38,000  Level Albuquerque Center
Fri 05:01:29 PM 35.3783 -104.5714 301° West 394 453 38,000  Level Albuquerque Center
Fri 05:02:31 PM 35.4358 -104.6861 302° West 392 451 38,000  Level Albuquerque Center
Fri 05:03:33 PM 35.5025 -104.8211 301° West 393 452 38,000  Level Albuquerque Center
Fri 05:04:35 PM 35.5597 -104.9378 301° West 395 455 38,000  Level Albuquerque Center
Fri 05:05:37 PM 35.6167 -105.0539 301° West 395 455 38,000  Level Albuquerque Center
Fri 05:06:39 PM 35.6728 -105.1722 300° West 396 456 38,000  Level Albuquerque Center
Fri 05:07:42 PM 35.7194 -105.2967 295° West 398 458 38,000  Level Albuquerque Center
Fri 05:08:44 PM 35.7669 -105.4194 296° West 396 456 38,000  Level Albuquerque Center
Fri 05:09:46 PM 35.8144 -105.5425 295° West 396 456 38,000  Level Albuquerque Center
Fri 05:10:48 PM 35.8683 -105.6839 295° West 396 456 38,000  Level Albuquerque Center
Fri 05:11:50 PM 35.9153 -105.8053 296° West 395 455 38,000  Level Albuquerque Center
Fri 05:12:52 PM 35.9608 -105.9278 295° West 394 453 38,000  Level Albuquerque Center
Fri 05:13:54 PM 36.0056 -106.0506 294° West 394 453 38,000  Level Albuquerque Center
Fri 05:14:56 PM 36.0536 -106.1747 296° West 399 459 38,000  Level Albuquerque Center
Fri 05:15:58 PM 36.0997 -106.3006 294° West 403 464 38,000  Level Albuquerque Center
Fri 05:17:00 PM 36.1556 -106.4497 295° West 401 461 38,000  Level Albuquerque Center
Fri 05:18:02 PM 36.2058 -106.5847 295° West 401 461 38,000  Level Albuquerque Center
Fri 05:19:04 PM 36.2494 -106.7044 294° West 400 460 38,000  Level Albuquerque Center
Fri 05:20:06 PM 36.2933 -106.8267 294° West 403 464 38,000  Level Albuquerque Center
Fri 05:21:08 PM 36.3458 -106.9683 295° West 405 466 38,000  Level Albuquerque Center
Fri 05:22:10 PM 36.3894 -107.0889 294° West 403 464 38,000  Level Albuquerque Center
Fri 05:23:12 PM 36.4411 -107.2317 294° West 405 466 38,000  Level Albuquerque Center
Fri 05:24:14 PM 36.4842 -107.3544 294° West 405 466 38,000  Level Albuquerque Center
Fri 05:25:16 PM 36.5353 -107.4969 294° West 405 466 38,000  Level Albuquerque Center
Fri 05:26:18 PM 36.5797 -107.6186 294° West 404 465 38,000  Level Albuquerque Center
Fri 05:27:20 PM 36.6300 -107.7619 294° West 405 466 38,000  Level Albuquerque Center
Fri 05:28:33 PM 36.6800 -107.9036 294° West 404 465 38,000  Level Denver Center
Fri 05:29:35 PM 36.7300 -108.0450 294° West 403 464 38,000  Level Denver Center
Fri 05:30:37 PM 36.7731 -108.1669 294° West 404 465 38,000  Level Denver Center
Fri 05:31:39 PM 36.8233 -108.3103 294° West 404 465 38,000  Level Denver Center
Fri 05:32:41 PM 36.8664 -108.4303 294° West 400 460 38,000  Level Denver Center
Fri 05:33:43 PM 36.9158 -108.5703 294° West 396 456 38,000  Level Denver Center
Fri 05:34:45 PM 36.9583 -108.6933 293° West 401 461 38,000  Level Denver Center
Fri 05:35:48 PM 37.0081 -108.8361 294° West 402 463 38,000  Level Denver Center
Fri 05:36:50 PM 37.0500 -108.9592 293° West 403 464 38,000  Level Denver Center
Fri 05:37:52 PM 37.0994 -109.1019 294° West 402 463 38,000  Level Denver Center
Fri 05:38:54 PM 37.1425 -109.2253 294° West 404 465 38,000  Level Denver Center
Fri 05:39:56 PM 37.1914 -109.3706 293° West 405 466 38,000  Level Denver Center
Fri 05:40:58 PM 37.2336 -109.4947 293° West 405 466 38,000  Level Denver Center
Fri 05:42:00 PM 37.2833 -109.6389 293° West 404 465 38,000  Level Denver Center
Fri 05:43:02 PM 37.3256 -109.7644 293° West 407 468 38,000  Level Denver Center
Fri 05:44:04 PM 37.3753 -109.9111 293° West 410 472 38,000  Level Denver Center
Fri 05:45:06 PM 37.4178 -110.0381 293° West 412 474 38,000  Level Denver Center
Fri 05:46:08 PM 37.4669 -110.1883 292° West 417 480 38,000  Level Denver Center
Fri 05:47:10 PM 37.5100 -110.3158 293° West 414 476 38,000  Level Denver Center
Fri 05:48:12 PM 37.5600 -110.4678 293° West 420 483 38,000  Level Denver Center
Fri 05:49:14 PM 37.6019 -110.5981 292° West 421 484 38,000  Level Denver Center
Fri 05:50:16 PM 37.6461 -110.7356 292° West 424 488 38,000  Level Denver Center
Fri 05:51:18 PM 37.6917 -110.8739 293° West 427 491 38,000  Level Denver Center
Fri 05:52:20 PM 37.7461 -111.0406 292° West 428 493 38,000  Level Denver Center
Fri 05:53:22 PM 37.7914 -111.1811 292° West 432 497 38,000  Level Denver Center
Fri 05:54:24 PM 37.8367 -111.3206 292° West 431 496 38,000  Level Denver Center
Fri 05:55:37 PM 37.8903 -111.4906 292° West 434 499 38,000  Level Salt Lake Center
Fri 05:56:39 PM 37.9350 -111.6308 292° West 432 497 38,000  Level Salt Lake Center
Fri 05:57:41 PM 37.9781 -111.7717 291° West 430 495 38,000  Level Salt Lake Center
Fri 05:58:43 PM 38.0219 -111.9114 292° West 429 494 38,000  Level Salt Lake Center
Fri 05:59:45 PM 38.0769 -112.0797 293° West 431 496 38,000  Level Salt Lake Center
Fri 06:00:47 PM 38.1200 -112.2206 291° West 431 496 38,000  Level Salt Lake Center
Fri 06:01:49 PM 38.1631 -112.3606 291° West 429 494 38,000  Level Salt Lake Center
Fri 06:02:51 PM 38.2058 -112.5003 291° West 428 493 38,000  Level Salt Lake Center
Fri 06:03:53 PM 38.2489 -112.6406 290° West 428 493 38,000  Level Salt Lake Center
Fri 06:04:00 PM 38.2498 -112.6517 290° West  Level FlightAware Approximate
Fri 06:04:55 PM 38.3008 -112.8114 291° West 433 498 38,000  Level Salt Lake Center
Fri 06:05:57 PM 38.3428 -112.9528 291° West 431 496 38,000  Level Salt Lake Center
Fri 06:06:59 PM 38.3536 -113.1058 275° West 440 506 38,000  Level Salt Lake Center
Fri 06:08:01 PM 38.3425 -113.2619 265° West 443 510 38,000  Level Salt Lake Center
Fri 06:09:03 PM 38.3306 -113.4167 264° West 443 510 38,000  Level Salt Lake Center
Fri 06:10:04 PM 38.3164 -113.6047 265° West 447 514 38,000  Level Salt Lake Center
Fri 06:11:06 PM 38.3044 -113.7606 264° West 444 511 38,000  Level Salt Lake Center
Fri 06:12:08 PM 38.2911 -113.9164 264° West 445 512 38,000  Level Salt Lake Center
Fri 06:13:10 PM 38.2781 -114.0747 264° West 449 517 38,000  Level Salt Lake Center
Fri 06:14:12 PM 38.2653 -114.2317 264° West 449 517 38,000  Level Salt Lake Center
Fri 06:15:14 PM 38.2503 -114.3892 263° West 451 519 38,000  Level Salt Lake Center
Fri 06:16:16 PM 38.2381 -114.5789 265° West 450 518 38,000  Level Salt Lake Center
Fri 06:17:18 PM 38.2289 -114.7389 266° West 454 522 38,000  Level Salt Lake Center
Fri 06:18:20 PM 38.2186 -114.8967 265° West 451 519 38,000  Level Salt Lake Center
Fri 06:19:22 PM 38.2094 -115.0547 266° West 450 518 38,000  Level Salt Lake Center
Fri 06:20:24 PM 38.1981 -115.2128 265° West 450 518 38,000  Level Salt Lake Center
Fri 06:21:26 PM 38.1881 -115.3847 266° West 446 513 38,000  Level Salt Lake Center
Fri 06:22:28 PM 38.1775 -115.5408 265° West 444 511 38,000  Level Salt Lake Center
Fri 06:23:30 PM 38.1661 -115.6958 265° West 441 507 38,000  Level Salt Lake Center
Fri 06:24:32 PM 38.1556 -115.8514 265° West 441 507 38,000  Level Salt Lake Center
Fri 06:25:34 PM 38.1422 -116.0372 265° West 441 507 38,000  Level Salt Lake Center
Fri 06:26:36 PM 38.1308 -116.1914 265° West 440 506 38,000  Level Salt Lake Center
Fri 06:27:38 PM 38.1183 -116.3478 264° West 442 509 38,000  Level Salt Lake Center
Fri 06:28:02 PM 38.1133 -116.4092 264° West 441 507 38,000  Level Oakland Center
Fri 06:28:39 PM 38.1069 -116.5014 265° West 440 506 38,000  Level Salt Lake Center
Fri 06:29:41 PM 38.0947 -116.6544 264° West 436 502 38,000  Level Salt Lake Center
Fri 06:30:43 PM 38.0828 -116.8078 264° West 436 502 38,000  Level Salt Lake Center
Fri 06:31:45 PM 38.0706 -116.9617 264° West 436 502 38,000  Level Salt Lake Center
Fri 06:32:08 PM 38.0656 -117.0222 264° West 435 501 38,000  Level Oakland Center
Fri 06:33:10 PM 38.0519 -117.1792 264° West 435 501 38,000  Level Oakland Center
Fri 06:34:11 PM 38.0392 -117.3397 264° West 442 509 38,000  Level Oakland Center
Fri 06:35:13 PM 38.0264 -117.4931 264° West 436 502 38,000  Level Oakland Center
Fri 06:36:14 PM 38.0131 -117.6456 264° West 434 499 38,000  Level Oakland Center
Fri 06:37:16 PM 38.0000 -117.7992 264° West 438 504 38,000  Level Oakland Center
Fri 06:38:17 PM 37.9806 -117.9831 262° West 439 505 38,000  Level Oakland Center
Fri 06:39:19 PM 37.9639 -118.1353 262° West 437 503 38,000  Level Oakland Center
Fri 06:40:20 PM 37.9472 -118.2883 262° West 438 504 38,000  Level Oakland Center
Fri 06:41:22 PM 37.9303 -118.4389 262° West 434 499 38,000  Level Oakland Center
Fri 06:42:23 PM 37.9133 -118.5903 262° West 435 501 38,000  Level Oakland Center
Fri 06:43:25 PM 37.8967 -118.7417 262° West 433 498 38,000  Level Oakland Center
Fri 06:44:27 PM 37.8808 -118.8928 262° West 433 498 38,000  Level Oakland Center
Fri 06:45:28 PM 37.8633 -119.0428 262° West 434 499 38,000  Level Oakland Center
Fri 06:46:30 PM 37.8419 -119.2253 262° West 437 503 38,000  Level Oakland Center
Fri 06:47:31 PM 37.8244 -119.3769 262° West 437 503 38,000  Level Oakland Center
Fri 06:48:33 PM 37.8081 -119.5267 262° West 429 494 38,000  Level Oakland Center
Fri 06:49:34 PM 37.7900 -119.6775 261° West 434 499 38,000  Level Oakland Center
Fri 06:50:36 PM 37.7708 -119.8289 261° West 436 502 38,000 48 Level Oakland Center
Fri 06:51:38 PM 37.7522 -119.9819 261° West 441 507 38,100 -634 Climbing Oakland Center
Fri 06:52:39 PM 37.7342 -120.1325 261° West 436 502 36,700 -1,415 Descending Oakland Center
Fri 06:53:41 PM 37.7172 -120.2761 262° West 421 484 35,200 -1,500 Descending Oakland Center
Fri 06:54:43 PM 37.6972 -120.4275 261° West 428 493 33,600 -2,293 Descending Oakland Center
Fri 06:55:44 PM 37.6725 -120.6147 261° West 446 513 30,500 -2,878 Descending Oakland Center
Fri 06:56:46 PM 37.6514 -120.7725 260° West 454 522 27,700 -2,710 Descending Oakland Center
Fri 06:57:48 PM 37.6308 -120.9278 261° West 450 518 24,900 -3,031 Descending Oakland Center
Fri 06:58:23 PM 37.6167 -121.0333 260° West 452 520 22,800 -3,663 Descending Northern Cal TRACON
Fri 06:59:23 PM 37.6000 -121.1833 262° West 446 513 19,100 -3,550 Descending Northern Cal TRACON
Fri 07:00:23 PM 37.5833 -121.3333 262° West 432 497 15,700 -3,600 Descending Northern Cal TRACON
Fri 07:01:23 PM 37.5667 -121.4667 261° West 406 467 11,900 -2,350 Descending Northern Cal TRACON
Fri 07:02:23 PM 37.5500 -121.6000 261° West 344 396 11,000 -450 Descending Northern Cal TRACON
Fri 07:03:23 PM 37.5333 -121.7000 258° West 300 345 11,000 -650 Level Northern Cal TRACON
Fri 07:04:23 PM 37.5167 -121.8000 258° West 302 348 9,700 -1,450 Descending Northern Cal TRACON
Fri 07:05:23 PM 37.4833 -121.9000 247° West 289 333 8,100 -800 Descending Northern Cal TRACON
Fri 07:06:23 PM 37.5000 -121.9833 284° West 285 328 8,100 -744 Level Northern Cal TRACON
Fri 07:07:24 PM 37.5167 -122.0833 282° West 282 325 6,600 -1,782 Descending Northern Cal TRACON
Fri 07:08:04 PM 37.5417 -122.1361 301° West 278 320 5,100 -2,250 Descending Oakland Center

Login

Don't have an account? Register now (free) for customized features, flight alerts, and more!